sensor_id;sensor_type;location;lat;lon;timestamp;pressure;altitude;pressure_sealevel;temperature;humidity
55418;BME280;41287;47.554;7.844;2023-05-19T00:01:08;98276.94;;;18.64;54.12
55418;BME280;41287;47.554;7.844;2023-05-19T00:03:36;98278.84;;;18.63;54.28
55418;BME280;41287;47.554;7.844;2023-05-19T00:06:05;98270.69;;;18.63;54.05
55418;BME280;41287;47.554;7.844;2023-05-19T00:08:33;98273.41;;;18.63;54.29
55418;BME280;41287;47.554;7.844;2023-05-19T00:11:01;98265.28;;;18.63;54.14
55418;BME280;41287;47.554;7.844;2023-05-19T00:13:27;98261.00;;;18.62;54.28
55418;BME280;41287;47.554;7.844;2023-05-19T00:15:52;98265.28;;;18.63;54.15
55418;BME280;41287;47.554;7.844;2023-05-19T00:18:18;98274.22;;;18.64;54.16
55418;BME280;41287;47.554;7.844;2023-05-19T00:20:44;98264.50;;;18.63;54.38
55418;BME280;41287;47.554;7.844;2023-05-19T00:23:10;98270.69;;;18.63;54.27
55418;BME280;41287;47.554;7.844;2023-05-19T00:25:35;98267.22;;;18.63;54.31
55418;BME280;41287;47.554;7.844;2023-05-19T00:28:01;98261.00;;;18.62;54.28
55418;BME280;41287;47.554;7.844;2023-05-19T00:30:27;98262.56;;;18.63;54.17
55418;BME280;41287;47.554;7.844;2023-05-19T00:32:53;98257.13;;;18.63;54.22
55418;BME280;41287;47.554;7.844;2023-05-19T00:35:18;98259.84;;;18.63;54.25
55418;BME280;41287;47.554;7.844;2023-05-19T00:37:44;98258.28;;;18.62;54.23
55418;BME280;41287;47.554;7.844;2023-05-19T00:40:11;98255.56;;;18.62;54.22
55418;BME280;41287;47.554;7.844;2023-05-19T00:42:37;98257.13;;;18.63;54.33
55418;BME280;41287;47.554;7.844;2023-05-19T00:45:03;98255.56;;;18.62;54.37
55418;BME280;41287;47.554;7.844;2023-05-19T00:47:29;98251.69;;;18.63;54.17
55418;BME280;41287;47.554;7.844;2023-05-19T00:49:55;98255.56;;;18.62;54.13
55418;BME280;41287;47.554;7.844;2023-05-19T00:52:20;98259.06;;;18.63;54.40
55418;BME280;41287;47.554;7.844;2023-05-19T00:54:46;98257.13;;;18.63;54.22
55418;BME280;41287;47.554;7.844;2023-05-19T00:57:12;98248.22;;;18.63;54.31
55418;BME280;41287;47.554;7.844;2023-05-19T00:59:38;98245.50;;;18.63;54.36
55418;BME280;41287;47.554;7.844;2023-05-19T01:02:03;98250.94;;;18.63;54.23
55418;BME280;41287;47.554;7.844;2023-05-19T01:04:31;98242.78;;;18.63;54.30
55418;BME280;41287;47.554;7.844;2023-05-19T01:06:59;98246.28;;;18.63;54.27
55418;BME280;41287;47.554;7.844;2023-05-19T01:09:25;98236.22;;;18.64;54.29
55418;BME280;41287;47.554;7.844;2023-05-19T01:11:50;98241.19;;;18.62;54.33
55418;BME280;41287;47.554;7.844;2023-05-19T01:14:16;98235.41;;;18.63;54.46
55418;BME280;41287;47.554;7.844;2023-05-19T01:17:03;98233.06;;;18.62;54.39
55418;BME280;41287;47.554;7.844;2023-05-19T01:19:51;98241.53;;;18.60;54.35
55418;BME280;41287;47.554;7.844;2023-05-19T01:25:44;98241.53;;;18.60;54.30
55418;BME280;41287;47.554;7.844;2023-05-19T01:28:29;98237.69;;;18.61;54.42
55418;BME280;41287;47.554;7.844;2023-05-19T01:30:57;98240.09;;;18.63;54.37
55418;BME280;41287;47.554;7.844;2023-05-19T01:33:24;98223.78;;;18.63;54.38
55418;BME280;41287;47.554;7.844;2023-05-19T01:35:52;98225.72;;;18.62;54.37
55418;BME280;41287;47.554;7.844;2023-05-19T01:38:18;98223.00;;;18.62;54.42
55418;BME280;41287;47.554;7.844;2023-05-19T01:40:47;98222.19;;;18.62;54.34
55418;BME280;41287;47.554;7.844;2023-05-19T01:43:19;98226.84;;;18.61;54.46
55418;BME280;41287;47.554;7.844;2023-05-19T01:45:45;98229.22;;;18.63;54.28
55418;BME280;41287;47.554;7.844;2023-05-19T01:48:11;98233.84;;;18.62;54.48
55418;BME280;41287;47.554;7.844;2023-05-19T01:50:38;98232.69;;;18.63;54.32
55418;BME280;41287;47.554;7.844;2023-05-19T01:53:04;98228.44;;;18.62;54.40
55418;BME280;41287;47.554;7.844;2023-05-19T01:55:29;98236.56;;;18.62;54.60
55418;BME280;41287;47.554;7.844;2023-05-19T02:00:52;98231.47;;;18.61;54.32
55418;BME280;41287;47.554;7.844;2023-05-19T02:06:42;98229.88;;;18.60;54.54
55418;BME280;41287;47.554;7.844;2023-05-19T02:09:15;98226.84;;;18.61;54.49
55418;BME280;41287;47.554;7.844;2023-05-19T02:11:56;98229.53;;;18.61;54.42
55418;BME280;41287;47.554;7.844;2023-05-19T02:14:34;98226.84;;;18.61;54.51
55418;BME280;41287;47.554;7.844;2023-05-19T02:17:03;98222.19;;;18.62;54.58
55418;BME280;41287;47.554;7.844;2023-05-19T02:19:32;98227.63;;;18.62;54.45
55418;BME280;41287;47.554;7.844;2023-05-19T02:21:59;98230.34;;;18.62;54.59
55418;BME280;41287;47.554;7.844;2023-05-19T02:24:27;98233.06;;;18.62;54.52
55418;BME280;41287;47.554;7.844;2023-05-19T02:26:53;98233.06;;;18.62;54.63
55418;BME280;41287;47.554;7.844;2023-05-19T02:29:19;98231.47;;;18.61;54.71
55418;BME280;41287;47.554;7.844;2023-05-19T02:31:44;98232.25;;;18.61;54.49
55418;BME280;41287;47.554;7.844;2023-05-19T02:34:10;98227.63;;;18.62;54.42
55418;BME280;41287;47.554;7.844;2023-05-19T02:36:37;98228.75;;;18.61;54.50
55418;BME280;41287;47.554;7.844;2023-05-19T02:39:04;98233.06;;;18.62;54.56
55418;BME280;41287;47.554;7.844;2023-05-19T02:41:31;98230.34;;;18.62;54.58
55418;BME280;41287;47.554;7.844;2023-05-19T02:43:57;98233.06;;;18.62;54.36
55418;BME280;41287;47.554;7.844;2023-05-19T02:46:22;98225.72;;;18.62;54.57
55418;BME280;41287;47.554;7.844;2023-05-19T02:48:48;98232.25;;;18.61;54.58
55418;BME280;41287;47.554;7.844;2023-05-19T02:51:13;98224.13;;;18.61;54.52
55418;BME280;41287;47.554;7.844;2023-05-19T02:53:39;98225.72;;;18.62;54.60
55418;BME280;41287;47.554;7.844;2023-05-19T02:56:04;98223.00;;;18.62;54.63
55418;BME280;41287;47.554;7.844;2023-05-19T02:58:30;98219.50;;;18.62;54.59
55418;BME280;41287;47.554;7.844;2023-05-19T03:00:55;98214.06;;;18.62;54.55
55418;BME280;41287;47.554;7.844;2023-05-19T03:03:21;98219.50;;;18.62;54.59
55418;BME280;41287;47.554;7.844;2023-05-19T03:05:46;98215.97;;;18.61;54.61
55418;BME280;41287;47.554;7.844;2023-05-19T03:08:12;98219.50;;;18.62;54.55
55418;BME280;41287;47.554;7.844;2023-05-19T03:10:37;98219.50;;;18.62;54.52
55418;BME280;41287;47.554;7.844;2023-05-19T03:13:03;98217.56;;;18.62;54.60
55418;BME280;41287;47.554;7.844;2023-05-19T03:15:28;98206.72;;;18.62;54.50
55418;BME280;41287;47.554;7.844;2023-05-19T03:17:54;98211.34;;;18.62;54.61
55418;BME280;41287;47.554;7.844;2023-05-19T03:20:20;98205.56;;;18.63;54.61
55418;BME280;41287;47.554;7.844;2023-05-19T03:22:45;98207.84;;;18.61;54.54
55418;BME280;41287;47.554;7.844;2023-05-19T03:25:13;98207.50;;;18.63;54.48
55418;BME280;41287;47.554;7.844;2023-05-19T03:27:38;98203.19;;;18.62;54.69
55418;BME280;41287;47.554;7.844;2023-05-19T03:30:04;98213.25;;;18.61;54.66
55418;BME280;41287;47.554;7.844;2023-05-19T03:32:29;98207.03;;;18.61;54.74
55418;BME280;41287;47.554;7.844;2023-05-19T03:34:57;98203.19;;;18.62;54.69
55418;BME280;41287;47.554;7.844;2023-05-19T03:37:24;98214.06;;;18.62;54.52
55418;BME280;41287;47.554;7.844;2023-05-19T03:39:49;98218.38;;;18.63;54.50
55418;BME280;41287;47.554;7.844;2023-05-19T03:42:15;98215.97;;;18.61;54.51
55418;BME280;41287;47.554;7.844;2023-05-19T03:44:40;98213.25;;;18.61;54.73
55418;BME280;41287;47.554;7.844;2023-05-19T03:47:06;98208.63;;;18.62;54.54
55418;BME280;41287;47.554;7.844;2023-05-19T03:49:33;98222.19;;;18.62;54.55
55418;BME280;41287;47.554;7.844;2023-05-19T03:51:58;98227.28;;;18.63;54.60
55418;BME280;41287;47.554;7.844;2023-05-19T03:54:24;98218.69;;;18.61;54.78
55418;BME280;41287;47.554;7.844;2023-05-19T03:56:49;98220.28;;;18.62;54.59
55418;BME280;41287;47.554;7.844;2023-05-19T03:59:14;98219.50;;;18.62;54.66
55418;BME280;41287;47.554;7.844;2023-05-19T04:01:40;98210.56;;;18.61;54.73
55418;BME280;41287;47.554;7.844;2023-05-19T04:04:08;98222.19;;;18.62;54.74
55418;BME280;41287;47.554;7.844;2023-05-19T04:06:33;98223.31;;;18.61;54.61
55418;BME280;41287;47.554;7.844;2023-05-19T04:09:01;98221.41;;;18.61;54.55
55418;BME280;41287;47.554;7.844;2023-05-19T04:11:27;98227.63;;;18.62;54.78
55418;BME280;41287;47.554;7.844;2023-05-19T04:13:53;98231.13;;;18.62;54.65
55418;BME280;41287;47.554;7.844;2023-05-19T04:16:18;98232.25;;;18.61;54.70
55418;BME280;41287;47.554;7.844;2023-05-19T04:18:43;98235.78;;;18.62;54.60
55418;BME280;41287;47.554;7.844;2023-05-19T04:21:10;98237.69;;;18.61;54.59
55418;BME280;41287;47.554;7.844;2023-05-19T04:23:35;98237.69;;;18.61;54.55
55418;BME280;41287;47.554;7.844;2023-05-19T04:26:00;98232.25;;;18.61;54.75
55418;BME280;41287;47.554;7.844;2023-05-19T04:28:29;98234.19;;;18.61;54.76
55418;BME280;41287;47.554;7.844;2023-05-19T04:30:55;98234.97;;;18.61;54.67
55418;BME280;41287;47.554;7.844;2023-05-19T04:33:22;98233.38;;;18.60;54.72
55418;BME280;41287;47.554;7.844;2023-05-19T04:35:47;98236.88;;;18.61;54.23
55418;BME280;41287;47.554;7.844;2023-05-19T04:38:14;98239.28;;;18.62;54.83
55418;BME280;41287;47.554;7.844;2023-05-19T04:40:44;98231.13;;;18.62;54.74
55418;BME280;41287;47.554;7.844;2023-05-19T04:43:10;98239.28;;;18.62;54.88
55418;BME280;41287;47.554;7.844;2023-05-19T04:45:35;98237.38;;;18.63;54.76
55418;BME280;41287;47.554;7.844;2023-05-19T04:48:01;98245.84;;;18.61;54.77
55418;BME280;41287;47.554;7.844;2023-05-19T04:50:29;98238.47;;;18.62;54.76
55418;BME280;41287;47.554;7.844;2023-05-19T04:52:56;98241.19;;;18.62;54.93
55418;BME280;41287;47.554;7.844;2023-05-19T04:55:23;98234.97;;;18.61;54.95
55418;BME280;41287;47.554;7.844;2023-05-19T04:57:48;98233.06;;;18.62;54.90
55418;BME280;41287;47.554;7.844;2023-05-19T05:00:14;98234.97;;;18.61;54.78
55418;BME280;41287;47.554;7.844;2023-05-19T05:02:39;98243.13;;;18.61;54.77
55418;BME280;41287;47.554;7.844;2023-05-19T05:05:07;98236.88;;;18.61;54.78
55418;BME280;41287;47.554;7.844;2023-05-19T05:07:32;98243.91;;;18.62;54.92
55418;BME280;41287;47.554;7.844;2023-05-19T05:09:57;98245.84;;;18.61;54.84
55418;BME280;41287;47.554;7.844;2023-05-19T05:12:23;98245.03;;;18.61;54.71
55418;BME280;41287;47.554;7.844;2023-05-19T05:14:49;98244.25;;;18.60;54.88
55418;BME280;41287;47.554;7.844;2023-05-19T05:17:14;98251.25;;;18.61;54.95
55418;BME280;41287;47.554;7.844;2023-05-19T05:19:46;98248.53;;;18.61;54.88
55418;BME280;41287;47.554;7.844;2023-05-19T05:22:14;98243.13;;;18.61;54.88
55418;BME280;41287;47.554;7.844;2023-05-19T05:24:40;98248.53;;;18.61;54.74
55418;BME280;41287;47.554;7.844;2023-05-19T05:27:05;98243.91;;;18.62;54.87
55418;BME280;41287;47.554;7.844;2023-05-19T05:29:32;98251.25;;;18.61;54.78
55418;BME280;41287;47.554;7.844;2023-05-19T05:31:57;98244.25;;;18.60;54.88
55418;BME280;41287;47.554;7.844;2023-05-19T05:34:24;98244.25;;;18.60;54.72
55418;BME280;41287;47.554;7.844;2023-05-19T05:36:51;98242.31;;;18.61;54.70
55418;BME280;41287;47.554;7.844;2023-05-19T05:39:17;98246.16;;;18.60;54.94
55418;BME280;41287;47.554;7.844;2023-05-19T05:41:42;98246.16;;;18.60;54.74
55418;BME280;41287;47.554;7.844;2023-05-19T05:44:07;98246.63;;;18.62;54.90
55418;BME280;41287;47.554;7.844;2023-05-19T05:46:41;98248.06;;;18.59;54.72
55418;BME280;41287;47.554;7.844;2023-05-19T05:49:06;98255.72;;;18.57;54.59
55418;BME280;41287;47.554;7.844;2023-05-19T05:51:31;98256.69;;;18.61;54.74
55418;BME280;41287;47.554;7.844;2023-05-19T05:54:05;98257.81;;;18.60;54.93
55418;BME280;41287;47.554;7.844;2023-05-19T05:56:31;98260.53;;;18.60;54.77
55418;BME280;41287;47.554;7.844;2023-05-19T05:59:00;98248.06;;;18.59;54.85
55418;BME280;41287;47.554;7.844;2023-05-19T06:01:26;98243.13;;;18.61;54.95
55418;BME280;41287;47.554;7.844;2023-05-19T06:03:52;98248.22;;;18.63;54.94
55418;BME280;41287;47.554;7.844;2023-05-19T06:06:17;98249.78;;;18.64;55.26
55418;BME280;41287;47.554;7.844;2023-05-19T06:08:42;98252.19;;;18.65;55.53
55418;BME280;41287;47.554;7.844;2023-05-19T06:11:08;98245.31;;;18.68;55.39
55418;BME280;41287;47.554;7.844;2023-05-19T06:13:34;98246.22;;;18.72;55.80
55418;BME280;41287;47.554;7.844;2023-05-19T06:16:00;98244.47;;;18.76;56.26
55418;BME280;41287;47.554;7.844;2023-05-19T06:18:26;98241.53;;;18.81;57.00
55418;BME280;41287;47.554;7.844;2023-05-19T06:20:51;98250.91;;;18.83;57.81
55418;BME280;41287;47.554;7.844;2023-05-19T06:23:16;98252.66;;;18.88;58.88
55418;BME280;41287;47.554;7.844;2023-05-19T06:25:42;98246.56;;;18.91;59.79
55418;BME280;41287;47.554;7.844;2023-05-19T06:28:07;98249.41;;;18.94;61.02
55418;BME280;41287;47.554;7.844;2023-05-19T06:30:34;98244.91;;;18.99;62.22
55418;BME280;41287;47.554;7.844;2023-05-19T06:33:01;98246.16;;;19.01;63.26
55418;BME280;41287;47.554;7.844;2023-05-19T06:35:29;98247.88;;;19.06;63.74
55418;BME280;41287;47.554;7.844;2023-05-19T06:37:55;98247.44;;;19.04;61.82
55418;BME280;41287;47.554;7.844;2023-05-19T06:40:21;98249.91;;;18.97;57.18
55418;BME280;41287;47.554;7.844;2023-05-19T06:42:46;98248.03;;;18.88;55.97
55418;BME280;41287;47.554;7.844;2023-05-19T06:45:15;98241.88;;;18.79;53.78
55418;BME280;41287;47.554;7.844;2023-05-19T06:47:46;98237.75;;;18.73;52.62
55418;BME280;41287;47.554;7.844;2023-05-19T06:50:11;98238.28;;;18.67;51.43
55418;BME280;41287;47.554;7.844;2023-05-19T06:52:38;98231.13;;;18.62;50.98
55418;BME280;41287;47.554;7.844;2023-05-19T06:55:04;98235.28;;;18.60;50.96
55418;BME280;41287;47.554;7.844;2023-05-19T06:57:29;98236.59;;;18.53;50.19
55418;BME280;41287;47.554;7.844;2023-05-19T06:59:55;98232.59;;;18.51;49.99
55418;BME280;41287;47.554;7.844;2023-05-19T07:02:20;98243.78;;;18.49;49.23
55418;BME280;41287;47.554;7.844;2023-05-19T07:04:45;98235.50;;;18.46;48.84
55418;BME280;41287;47.554;7.844;2023-05-19T07:07:13;98238.56;;;18.44;49.21
55418;BME280;41287;47.554;7.844;2023-05-19T07:09:43;98233.78;;;18.41;48.80
55418;BME280;41287;47.554;7.844;2023-05-19T07:12:08;98243.25;;;18.35;48.21
55418;BME280;41287;47.554;7.844;2023-05-19T07:14:34;98238.78;;;18.31;48.10
55418;BME280;41287;47.554;7.844;2023-05-19T07:17:02;98244.88;;;18.28;47.66
55418;BME280;41287;47.554;7.844;2023-05-19T07:19:27;98243.94;;;18.24;48.00
55418;BME280;41287;47.554;7.844;2023-05-19T07:21:53;98234.06;;;18.19;47.59
55418;BME280;41287;47.554;7.844;2023-05-19T07:24:19;98241.28;;;18.15;47.79
55418;BME280;41287;47.554;7.844;2023-05-19T07:26:45;98236.19;;;18.13;48.05
55418;BME280;41287;47.554;7.844;2023-05-19T07:29:10;98234.09;;;18.10;47.58
55418;BME280;41287;47.554;7.844;2023-05-19T07:31:36;98232.50;;;18.09;47.99
55418;BME280;41287;47.554;7.844;2023-05-19T07:34:01;98227.09;;;18.09;47.79
55418;BME280;41287;47.554;7.844;2023-05-19T07:36:27;98232.84;;;18.08;47.60
55418;BME280;41287;47.554;7.844;2023-05-19T07:38:52;98226.94;;;18.06;47.75
55418;BME280;41287;47.554;7.844;2023-05-19T07:41:18;98223.75;;;18.04;47.95
55418;BME280;41287;47.554;7.844;2023-05-19T07:43:43;98221.06;;;18.04;47.73
55418;BME280;41287;47.554;7.844;2023-05-19T07:46:08;98213.25;;;18.02;48.21
55418;BME280;41287;47.554;7.844;2023-05-19T07:48:35;98215.50;;;18.00;47.77
55418;BME280;41287;47.554;7.844;2023-05-19T07:51:02;98214.72;;;18.00;47.93
55418;BME280;41287;47.554;7.844;2023-05-19T07:53:28;98217.41;;;18.00;47.77
55418;BME280;41287;47.554;7.844;2023-05-19T07:55:53;98212.31;;;17.98;47.53
55418;BME280;41287;47.554;7.844;2023-05-19T07:58:19;98206.09;;;17.98;47.27
55418;BME280;41287;47.554;7.844;2023-05-19T08:00:44;98210.72;;;17.97;47.55
55418;BME280;41287;47.554;7.844;2023-05-19T08:03:10;98202.09;;;17.95;47.60
55418;BME280;41287;47.554;7.844;2023-05-19T08:05:36;98201.31;;;17.95;47.60
55418;BME280;41287;47.554;7.844;2023-05-19T08:08:02;98197.81;;;17.94;47.61
55418;BME280;41287;47.554;7.844;2023-05-19T08:10:27;98199.75;;;17.94;47.59
55418;BME280;41287;47.554;7.844;2023-05-19T08:12:53;98195.13;;;17.94;47.72
55418;BME280;41287;47.554;7.844;2023-05-19T08:15:18;98193.97;;;17.95;47.78
55418;BME280;41287;47.554;7.844;2023-05-19T08:17:44;98193.19;;;17.95;47.93
55418;BME280;41287;47.554;7.844;2023-05-19T08:20:10;98190.47;;;17.95;48.05
55418;BME280;41287;47.554;7.844;2023-05-19T08:22:38;98195.88;;;17.95;48.20
55418;BME280;41287;47.554;7.844;2023-05-19T08:25:04;98189.34;;;17.96;48.34
55418;BME280;41287;47.554;7.844;2023-05-19T08:27:31;98183.13;;;17.95;48.23
55418;BME280;41287;47.554;7.844;2023-05-19T08:29:56;98184.72;;;17.96;48.42
55418;BME280;41287;47.554;7.844;2023-05-19T08:32:22;98183.94;;;17.96;48.34
55418;BME280;41287;47.554;7.844;2023-05-19T08:34:48;98180.09;;;17.97;48.53
55418;BME280;41287;47.554;7.844;2023-05-19T08:37:13;98180.41;;;17.95;48.72
55418;BME280;41287;47.554;7.844;2023-05-19T08:39:38;98171.66;;;17.98;49.20
55418;BME280;41287;47.554;7.844;2023-05-19T08:42:04;98173.84;;;18.05;49.87
55418;BME280;41287;47.554;7.844;2023-05-19T08:44:31;98174.44;;;18.10;49.78
55418;BME280;41287;47.554;7.844;2023-05-19T08:47:00;98169.19;;;18.14;49.97
55418;BME280;41287;47.554;7.844;2023-05-19T08:49:27;98173.94;;;18.17;50.16
55418;BME280;41287;47.554;7.844;2023-05-19T08:52:15;98176.31;;;18.19;51.07
55418;BME280;41287;47.554;7.844;2023-05-19T08:55:03;98173.28;;;18.20;51.83
55418;BME280;41287;47.554;7.844;2023-05-19T08:57:32;98175.78;;;18.25;51.54
55418;BME280;41287;47.554;7.844;2023-05-19T08:59:58;98175.47;;;18.27;51.86
55418;BME280;41287;47.554;7.844;2023-05-19T09:02:24;98175.47;;;18.27;52.00
55418;BME280;41287;47.554;7.844;2023-05-19T09:04:50;98176.72;;;18.29;51.90
55418;BME280;41287;47.554;7.844;2023-05-19T09:07:17;98185.34;;;18.31;52.17
55418;BME280;41287;47.554;7.844;2023-05-19T09:09:43;98181.50;;;18.32;52.38
55418;BME280;41287;47.554;7.844;2023-05-19T09:12:09;98180.69;;;18.32;52.39
55418;BME280;41287;47.554;7.844;2023-05-19T09:14:36;98173.03;;;18.34;52.26
55418;BME280;41287;47.554;7.844;2023-05-19T09:17:01;98173.47;;;18.36;52.30
55418;BME280;41287;47.554;7.844;2023-05-19T09:19:30;98180.50;;;18.37;52.49
55418;BME280;41287;47.554;7.844;2023-05-19T09:22:01;98174.28;;;18.36;52.64
55418;BME280;41287;47.554;7.844;2023-05-19T09:24:30;98178.59;;;18.37;52.66
55418;BME280;41287;47.554;7.844;2023-05-19T09:26:57;98177.78;;;18.37;52.57
55418;BME280;41287;47.554;7.844;2023-05-19T09:29:23;98180.19;;;18.38;52.57
55418;BME280;41287;47.554;7.844;2023-05-19T09:31:52;98173.97;;;18.38;52.68
55418;BME280;41287;47.554;7.844;2023-05-19T09:34:21;98172.84;;;18.39;52.73
55418;BME280;41287;47.554;7.844;2023-05-19T09:36:49;98182.56;;;18.40;52.95
55418;BME280;41287;47.554;7.844;2023-05-19T09:39:15;98173.63;;;18.39;52.83
55418;BME280;41287;47.554;7.844;2023-05-19T09:41:43;98169.81;;;18.40;53.08
55418;BME280;41287;47.554;7.844;2023-05-19T09:44:12;98165.19;;;18.41;53.08
55418;BME280;41287;47.554;7.844;2023-05-19T09:46:37;98167.53;;;18.42;52.98
55418;BME280;41287;47.554;7.844;2023-05-19T09:49:08;98165.97;;;18.41;52.99
55418;BME280;41287;47.554;7.844;2023-05-19T09:51:40;98160.53;;;18.41;53.16
55418;BME280;41287;47.554;7.844;2023-05-19T09:54:07;98154.75;;;18.43;52.99
55418;BME280;41287;47.554;7.844;2023-05-19T09:56:34;98169.13;;;18.43;53.14
55418;BME280;41287;47.554;7.844;2023-05-19T09:59:03;98155.56;;;18.43;53.14
55418;BME280;41287;47.554;7.844;2023-05-19T10:01:30;98156.34;;;18.44;53.20
55418;BME280;41287;47.554;7.844;2023-05-19T10:03:59;98156.34;;;18.44;52.91
55418;BME280;41287;47.554;7.844;2023-05-19T10:06:25;98160.66;;;18.45;52.97
55418;BME280;41287;47.554;7.844;2023-05-19T10:08:51;98154.13;;;18.46;52.73
55418;BME280;41287;47.554;7.844;2023-05-19T10:11:17;98158.41;;;18.47;52.80
55418;BME280;41287;47.554;7.844;2023-05-19T10:13:44;98150.75;;;18.49;52.69
55418;BME280;41287;47.554;7.844;2023-05-19T10:16:09;98156.94;;;18.49;52.36
55418;BME280;41287;47.554;7.844;2023-05-19T10:18:36;98160.13;;;18.51;52.54
55418;BME280;41287;47.554;7.844;2023-05-19T10:21:02;98163.00;;;18.55;52.29
55418;BME280;41287;47.554;7.844;2023-05-19T10:23:28;98153.41;;;18.58;52.09
55418;BME280;41287;47.554;7.844;2023-05-19T10:25:55;98153.09;;;18.59;52.17
55418;BME280;41287;47.554;7.844;2023-05-19T10:28:24;98151.97;;;18.60;51.94
55418;BME280;41287;47.554;7.844;2023-05-19T10:30:57;98151.16;;;18.60;51.95
55418;BME280;41287;47.554;7.844;2023-05-19T10:33:41;98149.25;;;18.60;51.91
55418;BME280;41287;47.554;7.844;2023-05-19T10:36:45;98147.66;;;18.59;52.11
55418;BME280;41287;47.554;7.844;2023-05-19T10:39:23;98141.09;;;18.60;51.94
55418;BME280;41287;47.554;7.844;2023-05-19T10:42:14;98139.03;;;18.57;52.11
55418;BME280;41287;47.554;7.844;2023-05-19T10:47:30;98137.13;;;18.58;52.26
55418;BME280;41287;47.554;7.844;2023-05-19T10:49:59;98140.16;;;18.56;52.19
55418;BME280;41287;47.554;7.844;2023-05-19T10:52:24;98141.75;;;18.57;52.67
55418;BME280;41287;47.554;7.844;2023-05-19T10:54:50;98135.53;;;18.57;52.68
55418;BME280;41287;47.554;7.844;2023-05-19T10:57:19;98134.75;;;18.56;52.52
55418;BME280;41287;47.554;7.844;2023-05-19T10:59:49;98131.25;;;18.56;52.73
55418;BME280;41287;47.554;7.844;2023-05-19T11:02:43;98134.59;;;18.52;52.76
55418;BME280;41287;47.554;7.844;2023-05-19T11:05:14;98132.03;;;18.56;52.54
55418;BME280;41287;47.554;7.844;2023-05-19T11:07:54;98133.16;;;18.55;52.79
55418;BME280;41287;47.554;7.844;2023-05-19T11:10:25;98137.44;;;18.56;52.86
55418;BME280;41287;47.554;7.844;2023-05-19T11:12:53;98132.34;;;18.54;52.84
55418;BME280;41287;47.554;7.844;2023-05-19T11:15:24;98125.16;;;18.59;52.65
55418;BME280;41287;47.554;7.844;2023-05-19T11:17:51;98127.06;;;18.58;52.91
55418;BME280;41287;47.554;7.844;2023-05-19T11:20:24;98124.69;;;18.57;52.78
55418;BME280;41287;47.554;7.844;2023-05-19T11:23:03;98132.81;;;18.57;53.05
55418;BME280;41287;47.554;7.844;2023-05-19T11:25:51;98126.59;;;18.56;52.89
55418;BME280;41287;47.554;7.844;2023-05-19T11:28:19;98127.06;;;18.58;52.98
55418;BME280;41287;47.554;7.844;2023-05-19T11:30:47;98121.66;;;18.58;52.99
55418;BME280;41287;47.554;7.844;2023-05-19T11:33:15;98118.13;;;18.58;53.10
55418;BME280;41287;47.554;7.844;2023-05-19T11:35:49;98124.69;;;18.57;53.09
55418;BME280;41287;47.554;7.844;2023-05-19T11:38:15;98129.78;;;18.58;52.84
55418;BME280;41287;47.554;7.844;2023-05-19T11:40:42;98119.72;;;18.59;52.85
55418;BME280;41287;47.554;7.844;2023-05-19T11:43:07;98118.13;;;18.58;52.71
55418;BME280;41287;47.554;7.844;2023-05-19T11:45:33;98125.47;;;18.57;52.75
55418;BME280;41287;47.554;7.844;2023-05-19T11:47:59;98118.13;;;18.58;52.58
55418;BME280;41287;47.554;7.844;2023-05-19T11:50:24;98116.22;;;18.58;52.55
55418;BME280;41287;47.554;7.844;2023-05-19T11:52:51;98120.84;;;18.58;52.36
55418;BME280;41287;47.554;7.844;2023-05-19T11:55:20;98122.44;;;18.59;52.43
55418;BME280;41287;47.554;7.844;2023-05-19T12:00:28;98114.63;;;18.57;52.08
55418;BME280;41287;47.554;7.844;2023-05-19T12:02:54;98111.59;;;18.59;52.23
55418;BME280;41287;47.554;7.844;2023-05-19T12:05:24;98111.91;;;18.57;52.45
55418;BME280;41287;47.554;7.844;2023-05-19T12:07:51;98108.06;;;18.58;52.10
55418;BME280;41287;47.554;7.844;2023-05-19T12:10:25;98111.91;;;18.57;51.86
55418;BME280;41287;47.554;7.844;2023-05-19T12:12:53;98112.38;;;18.59;52.05
55418;BME280;41287;47.554;7.844;2023-05-19T12:15:19;98112.38;;;18.59;52.17
55418;BME280;41287;47.554;7.844;2023-05-19T12:17:49;98105.03;;;18.60;52.29
55418;BME280;41287;47.554;7.844;2023-05-19T12:20:16;98112.06;;;18.61;52.26
55418;BME280;41287;47.554;7.844;2023-05-19T12:22:43;98109.34;;;18.61;52.42
55418;BME280;41287;47.554;7.844;2023-05-19T12:25:11;98112.06;;;18.61;52.57
55418;BME280;41287;47.554;7.844;2023-05-19T12:27:37;98114.44;;;18.62;52.62
55418;BME280;41287;47.554;7.844;2023-05-19T12:30:03;98113.66;;;18.62;52.52
55418;BME280;41287;47.554;7.844;2023-05-19T12:32:29;98109.00;;;18.62;52.53
55418;BME280;41287;47.554;7.844;2023-05-19T12:34:56;98113.28;;;18.63;52.76
55418;BME280;41287;47.554;7.844;2023-05-19T12:37:25;98110.56;;;18.63;52.70
55418;BME280;41287;47.554;7.844;2023-05-19T12:39:51;98107.88;;;18.63;52.68
55418;BME280;41287;47.554;7.844;2023-05-19T12:42:17;98105.16;;;18.63;52.68
55418;BME280;41287;47.554;7.844;2023-05-19T12:44:45;98113.28;;;18.63;52.58
55418;BME280;41287;47.554;7.844;2023-05-19T12:47:18;98108.66;;;18.64;52.98
55418;BME280;41287;47.554;7.844;2023-05-19T12:52:27;98104.03;;;18.64;53.02
55418;BME280;41287;47.554;7.844;2023-05-19T12:55:00;98105.16;;;18.63;52.90
55418;BME280;41287;47.554;7.844;2023-05-19T12:57:27;98102.13;;;18.65;52.99
55418;BME280;41287;47.554;7.844;2023-05-19T13:00:04;98110.56;;;18.63;52.98
55418;BME280;41287;47.554;7.844;2023-05-19T13:05:22;98100.19;;;18.65;53.01
55418;BME280;41287;47.554;7.844;2023-05-19T13:07:57;98096.69;;;18.65;53.20
55418;BME280;41287;47.554;7.844;2023-05-19T13:10:24;98101.78;;;18.66;53.30
55418;BME280;41287;47.554;7.844;2023-05-19T13:12:52;98098.75;;;18.68;53.13
55418;BME280;41287;47.554;7.844;2023-05-19T13:15:18;98097.94;;;18.67;53.15
55418;BME280;41287;47.554;7.844;2023-05-19T13:17:45;98091.41;;;18.68;53.15
55418;BME280;41287;47.554;7.844;2023-05-19T13:20:11;98088.31;;;18.70;53.08
55418;BME280;41287;47.554;7.844;2023-05-19T13:22:37;98088.31;;;18.70;53.00